Time;durP1;ratioP1;P1;durP2;ratioP2;P2;SDS_P1;SDS_P2;PMS_P1;PMS_P2;Temp;Humidity;BMP_temperature;BMP_pressure;BME280_temperature;BME280_humidity;BME280_pressure;Samples;Min_cycle;Max_cycle;Signal;HPM_P1;HPM_P2
2021/07/24 00:01:51;;;;;;;;;;;;;;;28.19;48.43;100306.34;5069632;28;1275;-61
2021/07/24 00:04:19;;;;;;;;;;;;;;;28.17;48.28;100297.63;5090237;28;1901;-59
2021/07/24 00:06:47;;;;;;;;;;;;;;;28.14;47.87;100303.31;5072354;28;1764;-61
2021/07/24 00:09:14;;;;;;;;;;;;;;;28.13;47.71;100302.47;5128332;27;1180;-60
2021/07/24 00:11:41;;;;;;;;;;;;;;;28.13;47.64;100296.25;5094968;28;1149;-60
2021/07/24 00:14:07;;;;;;;;;;;;;;;28.09;47.14;100295.75;5073931;28;1303;-61
2021/07/24 00:16:34;;;;;;;;;;;;;;;28.07;47.02;100286.19;5073427;28;1305;-62
2021/07/24 00:19:01;;;;;;;;;;;;;;;28.04;46.63;100289.16;5092238;28;1232;-62
2021/07/24 00:21:28;;;;;;;;;;;;;;;28.03;46.15;100290.97;5091987;28;1042;-61
2021/07/24 00:23:54;;;;;;;;;;;;;;;28.04;45.89;100281.13;5091272;28;1973;-61
2021/07/24 00:26:21;;;;;;;;;;;;;;;28.02;45.73;100280.44;5091986;28;1120;-61
2021/07/24 00:28:49;;;;;;;;;;;;;;;28.05;45.91;100277.50;5092111;28;1306;-61
2021/07/24 00:31:16;;;;;;;;;;;;;;;28.06;46.01;100281.81;5091748;28;1079;-60
2021/07/24 00:33:43;;;;;;;;;;;;;;;28.02;46.09;100273.25;5092357;28;1228;-60
2021/07/24 00:36:09;;;;;;;;;;;;;;;28.03;46.14;100268.72;5091451;28;1071;-62
2021/07/24 00:38:38;;;;;;;;;;;;;;;28.03;46.49;100272.25;5073628;28;1204;-62
2021/07/24 00:41:10;;;;;;;;;;;;;;;28.04;46.77;100273.97;5073179;28;1132;-62
2021/07/24 00:43:37;;;;;;;;;;;;;;;28.06;46.85;100273.78;5091756;28;1906;-59
2021/07/24 00:46:04;;;;;;;;;;;;;;;28.07;47.37;100275.47;5091366;28;1225;-60
2021/07/24 00:48:34;;;;;;;;;;;;;;;28.02;48.17;100267.06;5091292;28;1177;-62
2021/07/24 00:51:01;;;;;;;;;;;;;;;28.02;48.69;100267.91;5091091;28;1340;-61
2021/07/24 00:53:35;;;;;;;;;;;;;;;28.04;49.17;100270.41;5091606;28;1291;-62
2021/07/24 00:56:03;;;;;;;;;;;;;;;28.06;49.02;100261.25;5091270;28;1158;-62
2021/07/24 00:58:32;;;;;;;;;;;;;;;28.00;48.87;100263.69;5091309;28;1186;-62
2021/07/24 01:01:02;;;;;;;;;;;;;;;27.91;47.83;100254.78;5091072;28;1028;-60
2021/07/24 01:03:30;;;;;;;;;;;;;;;27.93;47.62;100262.66;5073322;28;1914;-61
2021/07/24 01:05:58;;;;;;;;;;;;;;;27.92;47.48;100252.94;5072546;28;1650;-61
2021/07/24 01:08:25;;;;;;;;;;;;;;;27.93;47.11;100255.47;5091291;28;1389;-61
2021/07/24 01:10:52;;;;;;;;;;;;;;;27.96;46.81;100254.31;5091027;28;984;-62
2021/07/24 01:13:19;;;;;;;;;;;;;;;27.93;46.77;100238.56;5090011;28;1302;-62
2021/07/24 01:15:47;;;;;;;;;;;;;;;27.88;46.67;100241.72;5090488;28;853;-62
2021/07/24 01:18:14;;;;;;;;;;;;;;;27.86;46.82;100238.34;5091319;28;1237;-61
2021/07/24 01:20:41;;;;;;;;;;;;;;;27.88;46.64;100241.72;5091034;28;1436;-62
2021/07/24 01:23:11;;;;;;;;;;;;;;;27.90;46.67;100236.22;5091198;28;1136;-61
2021/07/24 01:25:43;;;;;;;;;;;;;;;27.88;46.78;100239.03;5090834;28;1934;-61
2021/07/24 01:28:10;;;;;;;;;;;;;;;27.91;46.74;100238.72;5090500;28;952;-61
2021/07/24 01:30:37;;;;;;;;;;;;;;;27.96;46.58;100230.22;5090747;28;1184;-63
2021/07/24 01:33:04;;;;;;;;;;;;;;;27.91;46.77;100236.03;5090690;28;1135;-61
2021/07/24 01:35:31;;;;;;;;;;;;;;;27.91;46.72;100229.84;5090667;28;1326;-61
2021/07/24 01:37:57;;;;;;;;;;;;;;;27.95;46.56;100234.72;5090928;28;1169;-61
2021/07/24 01:40:24;;;;;;;;;;;;;;;27.93;46.55;100231.38;5090361;28;1248;-61
2021/07/24 01:42:51;;;;;;;;;;;;;;;27.95;46.72;100233.88;5090269;28;1498;-62
2021/07/24 01:45:17;;;;;;;;;;;;;;;27.93;46.59;100227.88;5090043;28;1993;-62
2021/07/24 01:47:44;;;;;;;;;;;;;;;27.92;46.59;100229.69;5090585;28;1104;-61
2021/07/24 01:52:57;;;;;;;;;;;;;;;27.88;46.65;100225.66;5090801;28;1123;-62
2021/07/24 01:55:26;;;;;;;;;;;;;;;27.85;46.60;100228.63;5090292;28;1249;-62
2021/07/24 01:57:53;;;;;;;;;;;;;;;27.92;46.33;100218.16;5090467;28;1020;-61
2021/07/24 02:00:21;;;;;;;;;;;;;;;27.92;46.56;100229.69;5090009;28;1200;-61
2021/07/24 02:02:53;;;;;;;;;;;;;;;27.88;46.92;100227.47;5090256;28;1099;-62
2021/07/24 02:05:25;;;;;;;;;;;;;;;27.91;46.74;100227.16;5089920;28;1991;-61
2021/07/24 02:07:53;;;;;;;;;;;;;;;27.92;46.88;100218.16;5090008;28;926;-61
2021/07/24 02:10:20;;;;;;;;;;;;;;;27.88;46.99;100219.44;5071449;28;1221;-62
2021/07/24 02:12:46;;;;;;;;;;;;;;;27.86;47.37;100208.06;5104453;28;1068;-61
2021/07/24 02:15:13;;;;;;;;;;;;;;;27.89;47.69;100202.41;5071613;28;1302;-62
2021/07/24 02:17:40;;;;;;;;;;;;;;;27.89;48.05;100202.41;5090109;28;1182;-62
2021/07/24 02:20:08;;;;;;;;;;;;;;;27.78;48.34;100194.66;5089831;28;1317;-62
2021/07/24 02:22:34;;;;;;;;;;;;;;;27.88;48.20;100201.56;5090035;28;1070;-64
2021/07/24 02:25:01;;;;;;;;;;;;;;;27.90;48.05;100201.41;5090105;28;1977;-62
2021/07/24 02:27:28;;;;;;;;;;;;;;;27.95;47.80;100207.97;5089238;28;1142;-62
2021/07/24 02:29:54;;;;;;;;;;;;;;;27.89;47.77;100211.28;5089506;28;1317;-62
2021/07/24 02:32:21;;;;;;;;;;;;;;;27.90;47.46;100201.41;5089800;28;991;-63
2021/07/24 02:34:48;;;;;;;;;;;;;;;27.84;47.32;100207.41;5089761;28;1216;-61
2021/07/24 02:37:14;;;;;;;;;;;;;;;27.78;47.38;100208.03;5089784;28;1043;-62
2021/07/24 02:39:41;;;;;;;;;;;;;;;27.78;46.73;100200.00;5089675;28;1292;-62
2021/07/24 02:42:08;;;;;;;;;;;;;;;27.76;46.14;100204.66;5089321;28;1222;-61
2021/07/24 02:44:35;;;;;;;;;;;;;;;27.75;46.52;100203.00;5089220;28;1982;-62
2021/07/24 02:47:01;;;;;;;;;;;;;;;27.82;46.31;100207.53;5089641;28;1116;-61
2021/07/24 02:49:28;;;;;;;;;;;;;;;27.86;46.06;100197.38;5089558;28;1224;-62
2021/07/24 02:51:55;;;;;;;;;;;;;;;27.85;45.97;100207.22;5089477;28;920;-63
2021/07/24 02:54:21;;;;;;;;;;;;;;;27.82;45.97;100212.06;5089366;28;1318;-62
2021/07/24 02:56:48;;;;;;;;;;;;;;;27.78;46.04;100200.00;5089404;28;1076;-61
2021/07/24 02:59:15;;;;;;;;;;;;;;;27.79;46.11;100207.88;5104476;28;1503;-61
2021/07/24 03:01:41;;;;;;;;;;;;;;;27.80;45.89;100192.66;5088923;28;1064;-62
2021/07/24 03:04:08;;;;;;;;;;;;;;;27.82;45.71;100201.34;5088689;28;1968;-62
2021/07/24 03:06:35;;;;;;;;;;;;;;;27.77;45.77;100192.97;5089124;28;1010;-61
2021/07/24 03:09:03;;;;;;;;;;;;;;;27.63;46.01;100186.38;5089173;28;1216;-60
2021/07/24 03:11:30;;;;;;;;;;;;;;;27.62;45.91;100188.22;5088888;28;1057;-61
2021/07/24 03:13:57;;;;;;;;;;;;;;;27.66;45.54;100197.59;5088724;28;1172;-63
2021/07/24 03:16:23;;;;;;;;;;;;;;;27.69;45.50;100196.44;5088951;28;1203;-62
2021/07/24 03:18:51;;;;;;;;;;;;;;;27.64;45.52;100183.53;5087798;28;1308;-61
2021/07/24 03:21:18;;;;;;;;;;;;;;;27.60;45.95;100187.50;5088389;28;1075;-61
2021/07/24 03:23:45;;;;;;;;;;;;;;;27.62;45.92;100193.56;5088509;28;1235;-63
2021/07/24 03:26:12;;;;;;;;;;;;;;;27.61;45.84;100178.50;5088580;28;1906;-62
2021/07/24 03:28:39;;;;;;;;;;;;;;;27.63;45.83;100184.53;5088648;28;1238;-62
2021/07/24 03:31:06;;;;;;;;;;;;;;;27.56;46.33;100182.66;5088685;28;1105;-61
2021/07/24 03:33:33;;;;;;;;;;;;;;;27.57;46.62;100179.00;5088695;28;1216;-61
2021/07/24 03:36:00;;;;;;;;;;;;;;;27.55;46.73;100181.81;5070103;28;1037;-60
2021/07/24 03:38:27;;;;;;;;;;;;;;;27.51;46.60;100187.66;5088486;28;1231;-60
2021/07/24 03:40:54;;;;;;;;;;;;;;;27.57;46.62;100189.69;5088496;28;1112;-62
2021/07/24 03:43:21;;;;;;;;;;;;;;;27.48;46.80;100186.09;5088317;28;1259;-61
2021/07/24 03:45:47;;;;;;;;;;;;;;;27.47;46.69;100189.78;5088554;28;1979;-61
2021/07/24 03:48:14;;;;;;;;;;;;;;;27.49;46.54;100181.59;5088872;28;1040;-61
2021/07/24 03:50:42;;;;;;;;;;;;;;;27.50;46.63;100186.78;5088951;28;1334;-61
2021/07/24 03:53:09;;;;;;;;;;;;;;;27.56;46.38;100180.81;5088844;28;1177;-61
2021/07/24 03:55:36;;;;;;;;;;;;;;;27.56;46.35;100169.28;5088421;28;1292;-62
2021/07/24 03:58:02;;;;;;;;;;;;;;;27.52;46.35;100173.25;5092814;28;1267;-61
2021/07/24 04:00:46;;;;;;;;;;;;;;;27.49;46.73;100179.75;5072968;28;1193;-62
2021/07/24 04:03:13;;;;;;;;;;;;;;;27.39;46.68;100181.66;5088922;28;1190;-61
2021/07/24 04:05:42;;;;;;;;;;;;;;;27.44;47.20;100191.94;5088206;28;1905;-62
2021/07/24 04:08:09;;;;;;;;;;;;;;;27.42;47.33;100185.88;5088240;28;1332;-61
2021/07/24 04:10:38;;;;;;;;;;;;;;;27.44;47.70;100190.09;5087696;28;1157;-61
2021/07/24 04:13:04;;;;;;;;;;;;;;;27.38;47.72;100180.00;5087216;28;1160;-62
2021/07/24 04:15:32;;;;;;;;;;;;;;;27.44;47.84;100181.22;5087816;28;1304;-61
2021/07/24 04:17:59;;;;;;;;;;;;;;;27.40;47.88;100188.69;5088468;28;1234;-61
2021/07/24 04:20:26;;;;;;;;;;;;;;;27.37;48.11;100191.69;5088367;28;1216;-62
2021/07/24 04:22:52;;;;;;;;;;;;;;;27.36;48.47;100189.19;5088556;28;1079;-62
2021/07/24 04:25:19;;;;;;;;;;;;;;;27.31;49.05;100196.81;5088164;28;1909;-62
2021/07/24 04:27:47;;;;;;;;;;;;;;;27.34;48.75;100192.00;5088419;28;1121;-61
2021/07/24 04:30:13;;;;;;;;;;;;;;;27.39;48.90;100200.38;5087849;28;1334;-61
2021/07/24 04:32:40;;;;;;;;;;;;;;;27.32;49.11;100191.31;5088497;28;1150;-61
2021/07/24 04:35:07;;;;;;;;;;;;;;;27.31;49.34;100192.31;5070140;28;1288;-61
2021/07/24 04:37:34;;;;;;;;;;;;;;;27.29;49.31;100182.75;5088159;28;1473;-61
2021/07/24 04:40:01;;;;;;;;;;;;;;;27.32;49.57;100190.47;5088036;28;1303;-61
2021/07/24 04:42:28;;;;;;;;;;;;;;;27.30;49.53;100187.13;5087795;28;1647;-61
2021/07/24 04:44:55;;;;;;;;;;;;;;;27.27;50.10;100196.28;5088219;28;1906;-61
2021/07/24 04:47:21;;;;;;;;;;;;;;;27.27;49.82;100198.94;5088443;28;1130;-62
2021/07/24 04:49:49;;;;;;;;;;;;;;;27.28;50.28;100197.97;5089617;28;1168;-62
2021/07/24 04:52:17;;;;;;;;;;;;;;;27.19;50.39;100208.75;5073918;28;1147;-62
2021/07/24 04:54:45;;;;;;;;;;;;;;;27.24;50.47;100206.47;5092024;28;1260;-62
2021/07/24 04:57:13;;;;;;;;;;;;;;;27.26;50.86;100213.34;5090882;28;1502;-61
2021/07/24 04:59:47;;;;;;;;;;;;;;;27.29;50.63;100215.69;5091154;28;1295;-61
2021/07/24 05:02:18;;;;;;;;;;;;;;;27.30;51.16;100216.53;5091641;28;1106;-62
2021/07/24 05:04:46;;;;;;;;;;;;;;;27.35;51.21;100216.91;5091145;28;1976;-62
2021/07/24 05:07:13;;;;;;;;;;;;;;;27.41;51.12;100225.16;5090970;28;1130;-62
2021/07/24 05:09:40;;;;;;;;;;;;;;;27.26;51.88;100218.69;5091282;28;1325;-62
2021/07/24 05:12:07;;;;;;;;;;;;;;;27.31;51.96;100220.88;5091494;28;976;-62
2021/07/24 05:14:34;;;;;;;;;;;;;;;27.30;51.86;100221.88;5073225;28;1167;-62
2021/07/24 05:17:08;;;;;;;;;;;;;;;27.31;52.19;100218.19;5090355;28;1032;-62
2021/07/24 05:19:36;;;;;;;;;;;;;;;27.23;52.73;100232.34;5090901;28;1212;-63
2021/07/24 05:22:06;;;;;;;;;;;;;;;27.20;52.79;100227.31;5073074;28;1160;-62
2021/07/24 05:24:33;;;;;;;;;;;;;;;27.24;53.23;100222.50;5072341;28;1742;-62
2021/07/24 05:27:00;;;;;;;;;;;;;;;27.19;53.52;100225.63;5090902;28;1991;-62
2021/07/24 05:29:27;;;;;;;;;;;;;;;27.25;53.33;100229.50;5090957;28;1331;-62
2021/07/24 05:31:54;;;;;;;;;;;;;;;27.20;53.27;100230.00;5090817;28;928;-62
2021/07/24 05:34:20;;;;;;;;;;;;;;;27.20;52.95;100235.34;5090626;28;1224;-62
2021/07/24 05:36:47;;;;;;;;;;;;;;;27.21;53.18;100228.16;5090761;28;1453;-62
2021/07/24 05:39:14;;;;;;;;;;;;;;;27.25;52.85;100226.84;5071956;28;1237;-61
2021/07/24 05:41:41;;;;;;;;;;;;;;;27.14;53.08;100222.59;5090353;28;1615;-61
2021/07/24 05:44:09;;;;;;;;;;;;;;;27.23;52.75;100220.81;5090463;28;1254;-61
2021/07/24 05:46:36;;;;;;;;;;;;;;;27.23;52.69;100228.84;5088981;28;1922;-59
2021/07/24 05:49:03;;;;;;;;;;;;;;;27.20;52.75;100223.81;5089071;28;1323;-60
2021/07/24 05:51:30;;;;;;;;;;;;;;;27.22;52.72;100222.66;5071502;28;1159;-60
2021/07/24 05:53:56;;;;;;;;;;;;;;;27.23;52.77;100218.16;5089758;28;1311;-60
2021/07/24 05:56:23;;;;;;;;;;;;;;;27.22;52.65;100222.66;5089238;28;1045;-59
2021/07/24 05:58:50;;;;;;;;;;;;;;;27.22;52.77;100224.47;5104328;28;1633;-60
2021/07/24 06:01:16;;;;;;;;;;;;;;;27.16;52.53;100225.94;5089784;28;1263;-58
2021/07/24 06:03:43;;;;;;;;;;;;;;;27.19;52.55;100219.44;5089970;28;1314;-59
2021/07/24 06:06:10;;;;;;;;;;;;;;;27.21;52.17;100217.47;5090138;28;1910;-60
2021/07/24 06:08:37;;;;;;;;;;;;;;;27.20;52.41;100211.28;5090446;28;1236;-60
2021/07/24 06:11:04;;;;;;;;;;;;;;;27.22;52.54;100214.63;5088904;28;1241;-60
2021/07/24 06:13:31;;;;;;;;;;;;;;;27.25;52.23;100217.00;5070288;28;1329;-60
2021/07/24 06:15:58;;;;;;;;;;;;;;;27.19;52.20;100214.94;5088853;28;962;-59
2021/07/24 06:18:25;;;;;;;;;;;;;;;27.23;52.05;100210.13;5070846;28;1327;-60
2021/07/24 06:20:52;;;;;;;;;;;;;;;27.28;51.86;100211.34;5089006;28;857;-59
2021/07/24 06:23:19;;;;;;;;;;;;;;;27.32;51.74;100215.38;5088642;28;1233;-59
2021/07/24 06:25:46;;;;;;;;;;;;;;;27.30;51.86;100219.22;5088791;28;1913;-58
2021/07/24 06:28:13;;;;;;;;;;;;;;;27.30;51.63;100212.00;5071034;28;1192;-59
2021/07/24 06:30:40;;;;;;;;;;;;;;;27.32;51.84;100207.38;5088733;28;1381;-60
2021/07/24 06:33:07;;;;;;;;;;;;;;;27.34;51.60;100210.72;5089047;28;1160;-60
2021/07/24 06:35:34;;;;;;;;;;;;;;;27.27;51.43;100220.34;5088068;28;1216;-60
2021/07/24 06:38:00;;;;;;;;;;;;;;;27.29;51.52;100213.03;5088605;28;1847;-60
2021/07/24 06:40:28;;;;;;;;;;;;;;;27.33;51.44;100205.53;5088831;28;1248;-60
2021/07/24 06:42:55;;;;;;;;;;;;;;;27.26;51.39;100207.97;5088590;28;1591;-59
2021/07/24 06:45:22;;;;;;;;;;;;;;;27.32;51.34;100204.69;5088449;28;1909;-60
2021/07/24 06:47:49;;;;;;;;;;;;;;;27.32;51.15;100203.84;5088709;28;1160;-60
2021/07/24 06:50:15;;;;;;;;;;;;;;;27.37;51.16;100212.22;5088685;28;1336;-60
2021/07/24 06:52:43;;;;;;;;;;;;;;;27.36;50.56;100197.19;5088547;28;1211;-60
2021/07/24 06:55:10;;;;;;;;;;;;;;;27.41;50.64;100203.75;5088859;28;1233;-60
2021/07/24 06:57:38;;;;;;;;;;;;;;;27.36;50.82;100199.88;5087579;28;1573;-61
2021/07/24 07:00:05;;;;;;;;;;;;;;;27.38;50.60;100211.25;5087804;28;1286;-61
2021/07/24 07:02:32;;;;;;;;;;;;;;;27.38;50.43;100209.41;5088229;28;957;-61
2021/07/24 07:04:58;;;;;;;;;;;;;;;27.38;50.47;100201.38;5088265;28;1212;-60
2021/07/24 07:07:25;;;;;;;;;;;;;;;27.36;50.14;100210.56;5088073;28;1910;-61
2021/07/24 07:09:52;;;;;;;;;;;;;;;27.38;50.17;100225.47;5087885;28;1225;-61
2021/07/24 07:12:18;;;;;;;;;;;;;;;27.40;50.18;100212.75;5087112;28;1150;-60
2021/07/24 07:14:45;;;;;;;;;;;;;;;27.42;50.11;100215.28;5087845;28;1303;-62
2021/07/24 07:17:12;;;;;;;;;;;;;;;27.42;49.69;100221.50;5087960;28;904;-62
2021/07/24 07:19:39;;;;;;;;;;;;;;;27.45;49.63;100221.19;5087582;28;1333;-61
2021/07/24 07:22:06;;;;;;;;;;;;;;;27.46;49.61;100228.22;5069866;28;1078;-61
2021/07/24 07:24:32;;;;;;;;;;;;;;;27.49;49.72;100213.69;5087451;28;1268;-61
2021/07/24 07:26:59;;;;;;;;;;;;;;;27.48;49.45;100212.84;5087895;28;1922;-61
2021/07/24 07:29:26;;;;;;;;;;;;;;;27.55;49.87;100202.34;5087761;28;1241;-60
2021/07/24 07:31:53;;;;;;;;;;;;;;;27.54;49.35;100196.16;5087473;28;928;-60
2021/07/24 07:34:19;;;;;;;;;;;;;;;27.57;49.58;100198.53;5086514;28;1232;-60
2021/07/24 07:36:46;;;;;;;;;;;;;;;27.60;49.60;100187.50;5087746;28;1288;-60
2021/07/24 07:39:13;;;;;;;;;;;;;;;27.62;49.56;100188.22;5088035;28;1311;-60
2021/07/24 07:41:39;;;;;;;;;;;;;;;27.64;49.76;100182.69;5087961;28;1696;-60
2021/07/24 07:44:06;;;;;;;;;;;;;;;27.65;49.87;100173.69;5087866;28;1223;-61
2021/07/24 07:46:33;;;;;;;;;;;;;;;27.65;49.42;100174.53;5088253;28;2342;-62
2021/07/24 07:49:01;;;;;;;;;;;;;;;27.65;49.62;100174.53;5088042;28;1495;-61
2021/07/24 07:51:27;;;;;;;;;;;;;;;27.67;49.55;100174.34;5088266;28;1095;-61
2021/07/24 07:53:54;;;;;;;;;;;;;;;27.71;49.53;100172.19;5088053;28;1208;-60
2021/07/24 07:56:21;;;;;;;;;;;;;;;27.71;49.25;100174.88;5069937;28;1107;-60
2021/07/24 07:58:47;;;;;;;;;;;;;;;27.74;48.94;100178.06;5069794;28;1245;-61
2021/07/24 08:01:14;;;;;;;;;;;;;;;27.74;48.93;100175.41;5069611;28;1263;-61
2021/07/24 08:03:41;;;;;;;;;;;;;;;27.71;49.15;100169.53;5103774;28;1973;-61
2021/07/24 08:06:08;;;;;;;;;;;;;;;27.76;49.22;100177.91;5088383;28;1971;-61
2021/07/24 08:08:35;;;;;;;;;;;;;;;27.74;49.11;100169.19;5088502;28;1219;-61
2021/07/24 08:11:02;;;;;;;;;;;;;;;27.73;48.80;100172.88;5088584;28;1098;-61
2021/07/24 08:13:30;;;;;;;;;;;;;;;27.68;48.99;100173.34;5087950;28;1220;-62
2021/07/24 08:15:57;;;;;;;;;;;;;;;27.67;48.91;100177.88;5087094;28;1431;-66
2021/07/24 08:18:24;;;;;;;;;;;;;;;27.76;49.77;100175.22;5070129;28;1232;-66
2021/07/24 08:20:50;;;;;;;;;;;;;;;27.73;49.25;100181.75;5087557;28;1071;-62
2021/07/24 08:23:17;;;;;;;;;;;;;;;27.77;49.31;100185.78;5069784;28;1244;-65
2021/07/24 08:25:44;;;;;;;;;;;;;;;27.80;49.02;100192.66;5090523;28;1976;-65
2021/07/24 08:28:11;;;;;;;;;;;;;;;27.82;49.04;100180.78;5091750;28;1534;-65
2021/07/24 08:30:38;;;;;;;;;;;;;;;27.84;49.24;100177.97;5091117;28;1188;-66
2021/07/24 08:33:04;;;;;;;;;;;;;;;27.89;49.23;100186.34;5072940;28;1118;-66
2021/07/24 08:35:31;;;;;;;;;;;;;;;27.93;49.42;100179.69;5089941;28;1553;-64
2021/07/24 08:37:58;;;;;;;;;;;;;;;28.05;52.27;100181.94;5091863;28;1181;-64
2021/07/24 08:40:25;;;;;;;;;;;;;;;28.02;49.63;100186.75;5091492;28;1204;-63
2021/07/24 08:43:01;;;;;;;;;;;;;;;27.94;50.23;100192.88;5091001;28;1651;-67
2021/07/24 08:45:28;;;;;;;;;;;;;;;27.96;49.92;100195.41;5091517;28;1307;-66
2021/07/24 08:47:55;;;;;;;;;;;;;;;27.97;49.99;100199.75;5072546;28;949;-66
2021/07/24 08:50:22;;;;;;;;;;;;;;;27.95;50.12;100199.94;5090772;28;1845;-65
2021/07/24 08:52:52;;;;;;;;;;;;;;;27.93;50.27;100198.41;5091088;28;1144;-65
2021/07/24 08:55:23;;;;;;;;;;;;;;;27.94;50.48;100200.06;5090608;28;1358;-66
2021/07/24 08:57:53;;;;;;;;;;;;;;;27.95;51.04;100199.94;5072428;28;1227;-63
2021/07/24 09:00:22;;;;;;;;;;;;;;;27.97;52.06;100200.59;5091033;28;1236;-61
2021/07/24 09:02:52;;;;;;;;;;;;;;;28.02;51.56;100211.69;5090709;28;1068;-61
2021/07/24 09:05:19;;;;;;;;;;;;;;;28.12;51.82;100206.22;5090466;28;1306;-61
2021/07/24 09:07:56;;;;;;;;;;;;;;;28.04;52.22;100207.03;5072786;28;1910;-60
2021/07/24 09:10:23;;;;;;;;;;;;;;;28.06;52.50;100213.06;5091200;28;1301;-61
2021/07/24 09:12:53;;;;;;;;;;;;;;;28.04;53.25;100219.53;5091104;28;1055;-61
2021/07/24 09:15:21;;;;;;;;;;;;;;;28.14;53.34;100205.09;5090846;28;1216;-60
2021/07/24 09:18:07;;;;;;;;;;;;;;;28.06;53.52;100209.53;5088190;28;1181;-61
2021/07/24 09:20:34;;;;;;;;;;;;;;;28.06;53.65;100209.53;5090243;28;1561;-60
2021/07/24 09:23:30;;;;;;;;;;;;;;;28.00;54.23;100208.31;5090626;28;1151;-60
2021/07/24 09:25:57;;;;;;;;;;;;;;;28.00;54.54;100210.16;5086855;28;1918;-60
2021/07/24 09:28:25;;;;;;;;;;;;;;;28.01;54.29;100212.69;5090052;28;1215;-60
2021/07/24 09:30:52;;;;;;;;;;;;;;;28.00;54.48;100204.78;5090547;28;980;-61
2021/07/24 09:33:20;;;;;;;;;;;;;;;28.04;54.77;100217.75;5071783;28;1500;-60
2021/07/24 09:36:02;;;;;;;;;;;;;;;28.00;54.75;100219.00;5089974;28;1124;-61
2021/07/24 09:38:33;;;;;;;;;;;;;;;28.00;55.13;100221.69;5105073;28;1188;-60
2021/07/24 09:41:03;;;;;;;;;;;;;;;28.05;55.07;100215.91;5090176;28;1582;-62
2021/07/24 09:43:32;;;;;;;;;;;;;;;28.06;54.16;100213.06;5090281;28;1307;-61
2021/07/24 09:46:13;;;;;;;;;;;;;;;28.03;53.50;100215.19;5090004;28;1910;-61
2021/07/24 09:48:46;;;;;;;;;;;;;;;28.08;54.04;100218.28;5090462;28;1165;-61
2021/07/24 09:51:13;;;;;;;;;;;;;;;28.11;54.13;100220.63;5090214;28;1042;-61
2021/07/24 09:53:44;;;;;;;;;;;;;;;28.10;54.38;100216.25;5090196;28;1233;-60
2021/07/24 09:56:15;;;;;;;;;;;;;;;28.09;55.77;100210.06;5090003;28;1080;-60
2021/07/24 09:58:42;;;;;;;;;;;;;;;28.11;54.92;100209.91;5089962;28;1260;-60
2021/07/24 10:01:10;;;;;;;;;;;;;;;28.17;54.82;100209.28;5090242;28;1120;-61
2021/07/24 10:03:42;;;;;;;;;;;;;;;28.16;56.27;100210.25;5089684;28;1220;-61
2021/07/24 10:06:10;;;;;;;;;;;;;;;28.15;56.08;100211.25;5071236;28;1969;-60
2021/07/24 10:08:37;;;;;;;;;;;;;;;28.17;55.66;100217.31;5089648;28;1205;-60
2021/07/24 10:11:04;;;;;;;;;;;;;;;28.19;55.20;100204.59;5089832;28;1046;-60
2021/07/24 10:13:31;;;;;;;;;;;;;;;28.19;56.20;100199.22;5089540;28;1212;-60
2021/07/24 10:15:58;;;;;;;;;;;;;;;28.16;56.37;100207.59;5089289;28;1043;-60
2021/07/24 10:18:25;;;;;;;;;;;;;;;28.18;55.07;100200.22;5089387;28;1227;-60
2021/07/24 10:20:52;;;;;;;;;;;;;;;28.24;56.22;100196.09;5089593;28;809;-60
2021/07/24 10:23:23;;;;;;;;;;;;;;;28.25;53.26;100198.59;5089834;28;1329;-61
2021/07/24 10:25:54;;;;;;;;;;;;;;;28.26;56.67;100188.72;5071549;28;1106;-60
2021/07/24 10:28:28;;;;;;;;;;;;;;;28.25;55.82;100187.88;5089621;28;1894;-61
2021/07/24 10:30:56;;;;;;;;;;;;;;;28.22;56.69;100185.50;5089793;28;1094;-61
2021/07/24 10:33:24;;;;;;;;;;;;;;;28.24;54.76;100196.88;5089747;28;1323;-60
2021/07/24 10:36:09;;;;;;;;;;;;;;;28.21;56.18;100191.84;5088506;28;1134;-62
2021/07/24 10:38:35;;;;;;;;;;;;;;;28.22;57.49;100198.91;5089499;28;1268;-60
2021/07/24 10:41:21;;;;;;;;;;;;;;;28.21;57.15;100202.56;5089197;28;1457;-61
2021/07/24 10:43:56;;;;;;;;;;;;;;;28.23;56.69;100195.25;5089649;28;1357;-60
2021/07/24 10:46:43;;;;;;;;;;;;;;;28.21;56.61;100202.56;5088933;28;1981;-60
2021/07/24 10:49:22;;;;;;;;;;;;;;;28.23;55.48;100200.59;5088938;28;1327;-59
2021/07/24 10:51:55;;;;;;;;;;;;;;;28.27;57.81;100196.56;5088928;28;1120;-61
2021/07/24 10:54:22;;;;;;;;;;;;;;;28.29;57.16;100197.25;5088953;28;1212;-60
2021/07/24 10:56:49;;;;;;;;;;;;;;;28.27;56.79;100196.56;5070572;28;1150;-61
2021/07/24 10:59:23;;;;;;;;;;;;;;;28.28;55.54;100203.63;5088827;28;1384;-60
2021/07/24 11:01:54;;;;;;;;;;;;;;;28.28;54.03;100195.59;5088968;28;1099;-60
2021/07/24 11:04:36;;;;;;;;;;;;;;;28.27;55.59;100190.41;5088562;28;1247;-61
2021/07/24 11:07:16;;;;;;;;;;;;;;;28.29;56.62;100189.22;5088682;28;2005;-60
2021/07/24 11:09:44;;;;;;;;;;;;;;;28.32;56.38;100193.41;5088972;28;1287;-60
2021/07/24 11:12:12;;;;;;;;;;;;;;;28.33;54.05;100187.06;5088673;28;1145;-60
2021/07/24 11:14:38;;;;;;;;;;;;;;;28.35;55.76;100188.59;5070550;28;1141;-60
2021/07/24 11:17:05;;;;;;;;;;;;;;;28.39;55.80;100189.91;5088425;28;1231;-60
2021/07/24 11:19:34;;;;;;;;;;;;;;;28.40;56.08;100188.91;5088806;28;1311;-60
2021/07/24 11:22:07;;;;;;;;;;;;;;;28.42;56.54;100186.94;5070515;28;1062;-61
2021/07/24 11:24:34;;;;;;;;;;;;;;;28.45;56.19;100188.44;5087667;28;1305;-60
2021/07/24 11:27:01;;;;;;;;;;;;;;;28.43;55.34;100180.56;5088708;28;1980;-61
2021/07/24 11:29:28;;;;;;;;;;;;;;;28.47;56.35;100183.75;5070228;28;1334;-61
2021/07/24 11:31:55;;;;;;;;;;;;;;;28.49;55.26;100185.25;5088774;28;1047;-61
2021/07/24 11:34:22;;;;;;;;;;;;;;;28.49;56.24;100179.06;5088456;28;1201;-60
2021/07/24 11:36:49;;;;;;;;;;;;;;;28.48;55.72;100175.56;5088388;28;1149;-61
2021/07/24 11:39:15;;;;;;;;;;;;;;;28.50;55.42;100181.59;5088026;28;1224;-61
2021/07/24 11:41:42;;;;;;;;;;;;;;;28.50;55.93;100175.38;5087973;28;1174;-60
2021/07/24 11:44:08;;;;;;;;;;;;;;;28.52;55.03;100178.72;5088402;28;1250;-61
2021/07/24 11:46:35;;;;;;;;;;;;;;;28.50;55.08;100173.56;5088321;28;1973;-61
2021/07/24 11:49:03;;;;;;;;;;;;;;;28.50;56.35;100176.22;5087952;28;1320;-61
2021/07/24 11:51:30;;;;;;;;;;;;;;;28.49;55.89;100173.72;5070055;28;1051;-61
2021/07/24 11:53:57;;;;;;;;;;;;;;;28.45;55.66;100170.53;5088248;28;1240;-61
2021/07/24 11:56:24;;;;;;;;;;;;;;;28.49;55.80;100177.22;5087754;28;1075;-59
2021/07/24 11:58:54;;;;;;;;;;;;;;;28.51;56.28;100169.03;5089744;28;1240;-60
2021/07/24 12:01:21;;;;;;;;;;;;;;;28.51;55.12;100169.88;5092119;28;1087;-60
2021/07/24 12:04:02;;;;;;;;;;;;;;;28.48;56.47;100175.56;5092521;28;1236;-60
2021/07/24 12:06:29;;;;;;;;;;;;;;;28.51;55.93;100177.94;5092048;28;1909;-61
2021/07/24 12:08:56;;;;;;;;;;;;;;;28.53;56.54;100172.38;5092136;28;1230;-60
2021/07/24 12:11:22;;;;;;;;;;;;;;;28.52;55.60;100184.09;5073989;28;1152;-62
2021/07/24 12:14:00;;;;;;;;;;;;;;;28.55;56.47;100179.25;5092270;28;1275;-61
2021/07/24 12:16:34;;;;;;;;;;;;;;;28.58;55.94;100184.28;5092113;28;1090;-61
2021/07/24 12:19:09;;;;;;;;;;;;;;;28.54;56.11;100177.59;5092100;28;1236;-61
2021/07/24 12:21:36;;;;;;;;;;;;;;;28.52;55.81;100178.72;5091991;28;1099;-62
2021/07/24 12:24:03;;;;;;;;;;;;;;;28.54;56.09;100174.91;5091693;28;1303;-61
2021/07/24 12:26:33;;;;;;;;;;;;;;;28.58;56.69;100181.59;5091474;28;1953;-66
2021/07/24 12:29:01;;;;;;;;;;;;;;;28.52;56.66;100173.38;5091329;28;1340;-64
2021/07/24 12:31:33;;;;;;;;;;;;;;;28.36;54.87;100176.84;5091203;28;1102;-65
2021/07/24 12:34:01;;;;;;;;;;;;;;;28.14;54.34;100178.31;5091203;28;1369;-67
2021/07/24 12:36:29;;;;;;;;;;;;;;;27.98;53.51;100180.88;5072631;28;1118;-62
2021/07/24 12:38:56;;;;;;;;;;;;;;;27.96;52.36;100195.41;5091113;28;1264;-63
2021/07/24 12:41:33;;;;;;;;;;;;;;;27.80;51.32;100189.97;5080312;28;1625;-63
2021/07/24 12:44:09;;;;;;;;;;;;;;;27.63;50.69;100187.19;5088977;28;1349;-63
2021/07/24 12:46:36;;;;;;;;;;;;;;;27.58;50.07;100184.16;5088419;28;1909;-62
2021/07/24 12:49:04;;;;;;;;;;;;;;;27.54;49.78;100188.13;5090824;28;1306;-63
2021/07/24 12:51:37;;;;;;;;;;;;;;;27.53;49.32;100183.81;5090478;28;1253;-64
2021/07/24 12:54:08;;;;;;;;;;;;;;;27.47;49.16;100187.13;5090774;28;1319;-60
2021/07/24 12:56:35;;;;;;;;;;;;;;;27.45;48.87;100185.59;5088223;28;1273;-66